Providence, Rhode Island
Traffic Map
Current Weather Conditions
Providence, Rhode Island
Broken Clouds
Broken Clouds
19°
Feels Like: 19°
Wind Chill: 19° Ceiling: 25000
Heat Index: 19° Visibility: 10mi
Dew Point: 16° Wind: 6mph
Humidity: 81% Direction: ° ()
Pressure: 30.23in Gusts: 0mph
Raw Report DataKPVD 301213Z VRB05KT 10SM FEW005 BKN250 19/16 A3023 RMK AO2 T01890156
Traffic Incident Summary
Active as of:
Severity:
Category:
InformationThere was an issue retrieving the traffic information for this location. Please try a different location or try again shortly.
Advertisements
Track Severe Weather on mobile